No particular awareness of the weather is required.    There are no Weather-warnings


Meteo18 Weather Cam more information Meteo18 Weather Cam


Thunder radar more information blitzortung!


Rain radar more information rain snow radar


Visit our other weather sites:

Template documentation
and downloads

And another site



Weather Underground History page Text

Daily Summary for October 14, 2017 Units:  Both    English   Metric
« Previous Day
Next Day »
Daily Weekly Monthly Yearly Custom
  High: Low: Average:
Temperature: 70.9 °F /  21.6 °C 49.6 °F /  9.8 °C 55.8 °F /  13.2 °C
Dew Point: 58.5 °F /  14.7 °C 48.7 °F /  9.3 °C 52.5 °F /  11.4 °C
Humidity: 97 % 63 % 90 %
Wind Speed: 4 mph /  6.4 km/h - 0.3 mph /  0.5 km/h
Wind Gust: 5 mph /  8.0 km/h - -
Wind:- - SE
Pressure: 30.4 in /  1028.0 hPa 30.3 in /  1026.6 hPa -
Precipitation: 0.01 in /  0.3 mm    
Historical Graphs
 
 
Tabular Data for October 14, 2017
Time Temperature Dew Point Pressure Wind Wind Speed Wind Gust Humidity Rainfall Rate (Hourly)
00:02 54.5 °F /  12.5 °C 52.9 °F /  11.6 °C 30.3 in /  1027.3 hPa Calm   2 mph /  3.2 km/h 94 % 0 in /  0.0 mm
00:12 54.5 °F /  12.5 °C 52.9 °F /  11.6 °C 30.3 in /  1027.3 hPa Calm   1 mph /  1.6 km/h 94 % 0 in /  0.0 mm
00:17 54.7 °F /  12.6 °C 53.2 °F /  11.8 °C 30.3 in /  1027.3 hPa Calm   1 mph /  1.6 km/h 95 % 0 in /  0.0 mm
00:22 54.9 °F /  12.7 °C 53.4 °F /  11.9 °C 30.3 in /  1027.3 hPa Calm   1 mph /  1.6 km/h 95 % 0 in /  0.0 mm
00:32 54.3 °F /  12.4 °C 52.7 °F /  11.5 °C 30.3 in /  1027.3 hPa Calm     94 % 0 in /  0.0 mm
00:42 54.1 °F /  12.3 °C 52.5 °F /  11.4 °C 30.3 in /  1027.3 hPa Calm     94 % 0 in /  0.0 mm
00:47 54 °F /  12.2 °C 52.3 °F /  11.3 °C 30.3 in /  1027.3 hPa WNW 1 mph /  1.6 km/h 1 mph /  1.6 km/h 94 % 0 in /  0.0 mm
00:52 53.8 °F /  12.1 °C 52.3 °F /  11.3 °C 30.3 in /  1027.3 hPa Calm   1 mph /  1.6 km/h 95 % 0 in /  0.0 mm
00:57 54 °F /  12.2 °C 52.5 °F /  11.4 °C 30.3 in /  1027.3 hPa Calm   1 mph /  1.6 km/h 95 % 0 in /  0.0 mm
01:02 53.8 °F /  12.1 °C 52.3 °F /  11.3 °C 30.3 in /  1027.3 hPa Calm   1 mph /  1.6 km/h 95 % 0 in /  0.0 mm
01:07 53.8 °F /  12.1 °C 52.3 °F /  11.3 °C 30.3 in /  1027.3 hPa Calm   1 mph /  1.6 km/h 95 % 0 in /  0.0 mm
01:12 53.6 °F /  12.0 °C 52.2 °F /  11.2 °C 30.3 in /  1027.3 hPa Calm   1 mph /  1.6 km/h 95 % 0 in /  0.0 mm
01:22 53.4 °F /  11.9 °C 52 °F /  11.1 °C 30.3 in /  1027.3 hPa Calm   1 mph /  1.6 km/h 95 % 0 in /  0.0 mm
01:32 53.6 °F /  12.0 °C 52.5 °F /  11.4 °C 30.3 in /  1027.3 hPa Calm   1 mph /  1.6 km/h 96 % 0 in /  0.0 mm
01:37 53.8 °F /  12.1 °C 52.7 °F /  11.5 °C 30.3 in /  1027.3 hPa Calm   1 mph /  1.6 km/h 96 % 0 in /  0.0 mm
01:42 53.2 °F /  11.8 °C 51.8 °F /  11.0 °C 30.4 in /  1027.7 hPa Calm     95 % 0 in /  0.0 mm
01:47 53.2 °F /  11.8 °C 51.8 °F /  11.0 °C 30.3 in /  1027.3 hPa Calm     95 % 0 in /  0.0 mm
01:52 53.2 °F /  11.8 °C 51.8 °F /  11.0 °C 30.4 in /  1027.7 hPa Calm     95 % 0 in /  0.0 mm
01:57 53.1 °F /  11.7 °C 51.6 °F /  10.9 °C 30.3 in /  1027.3 hPa Calm     95 % 0 in /  0.0 mm
02:02 52.9 °F /  11.6 °C 51.4 °F /  10.8 °C 30.3 in /  1027.3 hPa Calm     95 % 0 in /  0.0 mm
02:07 52.9 °F /  11.6 °C 51.4 °F /  10.8 °C 30.3 in /  1027.3 hPa Calm     95 % 0 in /  0.0 mm
02:12 52.5 °F /  11.4 °C 51.1 °F /  10.6 °C 30.3 in /  1027.3 hPa Calm     95 % 0 in /  0.0 mm
02:17 52.5 °F /  11.4 °C 51.4 °F /  10.8 °C 30.3 in /  1027.3 hPa Calm     96 % 0 in /  0.0 mm
02:22 52.9 °F /  11.6 °C 51.8 °F /  11.0 °C 30.3 in /  1027.3 hPa Calm     96 % 0 in /  0.0 mm
02:32 52.5 °F /  11.4 °C 51.1 °F /  10.6 °C 30.3 in /  1027.3 hPa Calm     95 % 0 in /  0.0 mm
02:37 52.3 °F /  11.3 °C 51.3 °F /  10.7 °C 30.4 in /  1027.7 hPa Calm     96 % 0 in /  0.0 mm
02:42 52.7 °F /  11.5 °C 51.6 °F /  10.9 °C 30.4 in /  1027.7 hPa Calm     96 % 0 in /  0.0 mm
02:47 52.7 °F /  11.5 °C 51.6 °F /  10.9 °C 30.3 in /  1027.3 hPa Calm     96 % 0 in /  0.0 mm
02:52 52.3 °F /  11.3 °C 50.9 °F /  10.5 °C 30.3 in /  1027.3 hPa Calm     95 % 0 in /  0.0 mm
02:57 52.2 °F /  11.2 °C 51.1 °F /  10.6 °C 30.4 in /  1027.7 hPa Calm     96 % 0 in /  0.0 mm
03:02 52.2 °F /  11.2 °C 51.1 °F /  10.6 °C 30.4 in /  1027.7 hPa Calm     96 % 0 in /  0.0 mm
03:12 52.3 °F /  11.3 °C 51.3 °F /  10.7 °C 30.3 in /  1027.3 hPa Calm     96 % 0 in /  0.0 mm
03:17 52 °F /  11.1 °C 50.9 °F /  10.5 °C 30.3 in /  1027.3 hPa Calm     96 % 0 in /  0.0 mm
03:22 51.8 °F /  11.0 °C 50.7 °F /  10.4 °C 30.3 in /  1027.3 hPa Calm     96 % 0 in /  0.0 mm
03:27 52.2 °F /  11.2 °C 51.3 °F /  10.7 °C 30.3 in /  1027.3 hPa Calm     97 % 0 in /  0.0 mm
03:32 52.3 °F /  11.3 °C 51.4 °F /  10.8 °C 30.3 in /  1027.3 hPa Calm   1 mph /  1.6 km/h 97 % 0 in /  0.0 mm
03:37 52.3 °F /  11.3 °C 51.3 °F /  10.7 °C 30.3 in /  1027.3 hPa Calm   1 mph /  1.6 km/h 96 % 0 in /  0.0 mm
03:42 52.3 °F /  11.3 °C 51.3 °F /  10.7 °C 30.3 in /  1027.3 hPa Calm   1 mph /  1.6 km/h 96 % 0 in /  0.0 mm
03:52 52 °F /  11.1 °C 50.9 °F /  10.5 °C 30.3 in /  1027.0 hPa Calm     96 % 0 in /  0.0 mm
03:57 51.6 °F /  10.9 °C 50.5 °F /  10.3 °C 30.3 in /  1027.0 hPa Calm     96 % 0 in /  0.0 mm
04:02 52.2 °F /  11.2 °C 51.3 °F /  10.7 °C 30.3 in /  1027.0 hPa Calm     97 % 0 in /  0.0 mm
04:07 52.2 °F /  11.2 °C 51.1 °F /  10.6 °C 30.3 in /  1027.0 hPa Calm     96 % 0 in /  0.0 mm
04:12 52.2 °F /  11.2 °C 51.1 °F /  10.6 °C 30.3 in /  1027.0 hPa Calm     96 % 0 in /  0.0 mm
04:17 51.8 °F /  11.0 °C 50.7 °F /  10.4 °C 30.3 in /  1027.0 hPa Calm     96 % 0 in /  0.0 mm
04:22 51.6 °F /  10.9 °C 50.5 °F /  10.3 °C 30.3 in /  1027.0 hPa Calm     96 % 0 in /  0.0 mm
04:32 51.3 °F /  10.7 °C 50.2 °F /  10.1 °C 30.3 in /  1027.0 hPa Calm     96 % 0 in /  0.0 mm
04:42 51.4 °F /  10.8 °C 50.4 °F /  10.2 °C 30.3 in /  1027.0 hPa Calm     96 % 0 in /  0.0 mm
04:47 51.4 °F /  10.8 °C 50.4 °F /  10.2 °C 30.3 in /  1027.0 hPa Calm     96 % 0 in /  0.0 mm
04:52 51.3 °F /  10.7 °C 50.2 °F /  10.1 °C 30.3 in /  1027.0 hPa Calm     96 % 0 in /  0.0 mm
04:57 51.1 °F /  10.6 °C 50 °F /  10.0 °C 30.3 in /  1027.0 hPa Calm     96 % 0 in /  0.0 mm
05:02 51.1 °F /  10.6 °C 50 °F /  10.0 °C 30.3 in /  1027.0 hPa Calm     96 % 0 in /  0.0 mm
05:12 50.5 °F /  10.3 °C 49.5 °F /  9.7 °C 30.3 in /  1027.0 hPa Calm     96 % 0 in /  0.0 mm
05:22 50 °F /  10.0 °C 48.9 °F /  9.4 °C 30.3 in /  1027.0 hPa Calm     96 % 0 in /  0.0 mm
05:42 50.4 °F /  10.2 °C 49.3 °F /  9.6 °C 30.3 in /  1027.0 hPa Calm     96 % 0 in /  0.0 mm
05:47 50.4 °F /  10.2 °C 49.3 °F /  9.6 °C 30.3 in /  1027.0 hPa Calm     96 % 0 in /  0.0 mm
05:52 50.2 °F /  10.1 °C 49.1 °F /  9.5 °C 30.3 in /  1026.6 hPa Calm     96 % 0 in /  0.0 mm
05:57 50.4 °F /  10.2 °C 49.5 °F /  9.7 °C 30.3 in /  1026.6 hPa Calm     97 % 0 in /  0.0 mm
06:02 49.8 °F /  9.9 °C 48.7 °F /  9.3 °C 30.3 in /  1026.6 hPa Calm     96 % 0 in /  0.0 mm
06:12 49.6 °F /  9.8 °C 48.7 °F /  9.3 °C 30.3 in /  1027.0 hPa Calm     97 % 0 in /  0.0 mm
06:17 49.6 °F /  9.8 °C 48.7 °F /  9.3 °C 30.3 in /  1027.0 hPa Calm     97 % 0 in /  0.0 mm
06:22 50 °F /  10.0 °C 49.1 °F /  9.5 °C 30.3 in /  1027.0 hPa Calm     97 % 0 in /  0.0 mm
06:32 50.4 °F /  10.2 °C 49.5 °F /  9.7 °C 30.3 in /  1027.0 hPa Calm     97 % 0 in /  0.0 mm
06:42 50.2 °F /  10.1 °C 49.3 °F /  9.6 °C 30.3 in /  1027.0 hPa Calm     97 % 0 in /  0.0 mm
06:47 50.2 °F /  10.1 °C 49.3 °F /  9.6 °C 30.3 in /  1027.0 hPa Calm     97 % 0 in /  0.0 mm
06:52 50.4 °F /  10.2 °C 49.5 °F /  9.7 °C 30.3 in /  1027.0 hPa Calm     97 % 0 in /  0.0 mm
07:02 50.4 °F /  10.2 °C 49.5 °F /  9.7 °C 30.3 in /  1027.0 hPa Calm     97 % 0 in /  0.0 mm
07:07 50.4 °F /  10.2 °C 49.5 °F /  9.7 °C 30.3 in /  1027.0 hPa Calm     97 % 0 in /  0.0 mm
07:12 50.4 °F /  10.2 °C 49.5 °F /  9.7 °C 30.3 in /  1027.0 hPa Calm     97 % 0 in /  0.0 mm
07:17 50.2 °F /  10.1 °C 49.3 °F /  9.6 °C 30.3 in /  1027.0 hPa Calm     97 % 0.01 in /  0.3 mm
07:27 50.7 °F /  10.4 °C 49.8 °F /  9.9 °C 30.3 in /  1027.0 hPa Calm     97 % 0.01 in /  0.3 mm
07:32 51.4 °F /  10.8 °C 50.5 °F /  10.3 °C 30.3 in /  1027.0 hPa Calm     97 % 0.01 in /  0.3 mm
07:42 51.1 °F /  10.6 °C 50.2 °F /  10.1 °C 30.3 in /  1027.0 hPa Calm     97 % 0.01 in /  0.3 mm
07:47 51.1 °F /  10.6 °C 50.2 °F /  10.1 °C 30.3 in /  1027.0 hPa Calm     97 % 0.01 in /  0.3 mm
07:52 50.7 °F /  10.4 °C 49.8 °F /  9.9 °C 30.3 in /  1027.0 hPa Calm     97 % 0.01 in /  0.3 mm
08:02 51.4 °F /  10.8 °C 50.5 °F /  10.3 °C 30.3 in /  1027.0 hPa Calm     97 % 0.01 in /  0.3 mm
08:12 50.9 °F /  10.5 °C 50 °F /  10.0 °C 30.3 in /  1027.0 hPa Calm     97 % 0.01 in /  0.3 mm
08:17 50.9 °F /  10.5 °C 50 °F /  10.0 °C 30.3 in /  1027.3 hPa Calm     97 % 0 in /  0.0 mm
08:22 51.3 °F /  10.7 °C 50.4 °F /  10.2 °C 30.3 in /  1027.3 hPa Calm     97 % 0 in /  0.0 mm
08:27 51.3 °F /  10.7 °C 50.4 °F /  10.2 °C 30.3 in /  1027.3 hPa Calm     97 % 0 in /  0.0 mm
08:32 51.3 °F /  10.7 °C 50.4 °F /  10.2 °C 30.3 in /  1027.3 hPa Calm     97 % 0 in /  0.0 mm
08:42 51.8 °F /  11.0 °C 50.9 °F /  10.5 °C 30.3 in /  1027.3 hPa Calm     97 % 0 in /  0.0 mm
08:47 51.4 °F /  10.8 °C 50.5 °F /  10.3 °C 30.3 in /  1027.3 hPa Calm     97 % 0 in /  0.0 mm
08:52 51.3 °F /  10.7 °C 50.4 °F /  10.2 °C 30.3 in /  1027.3 hPa Calm     97 % 0 in /  0.0 mm
08:57 51.4 °F /  10.8 °C 50.5 °F /  10.3 °C 30.3 in /  1027.3 hPa Calm     97 % 0 in /  0.0 mm
09:02 51.6 °F /  10.9 °C 50.7 °F /  10.4 °C 30.4 in /  1027.7 hPa Calm     97 % 0 in /  0.0 mm
09:12 52.7 °F /  11.5 °C 51.8 °F /  11.0 °C 30.4 in /  1027.7 hPa Calm     97 % 0 in /  0.0 mm
09:17 53.2 °F /  11.8 °C 52.3 °F /  11.3 °C 30.4 in /  1027.7 hPa Calm     97 % 0 in /  0.0 mm
09:22 53.6 °F /  12.0 °C 52.7 °F /  11.5 °C 30.4 in /  1027.7 hPa Calm     97 % 0 in /  0.0 mm
09:32 54.9 °F /  12.7 °C 54 °F /  12.2 °C 30.4 in /  1027.7 hPa Calm     97 % 0 in /  0.0 mm
09:37 55 °F /  12.8 °C 54 °F /  12.2 °C 30.4 in /  1027.7 hPa Calm     96 % 0 in /  0.0 mm
09:42 55 °F /  12.8 °C 54 °F /  12.2 °C 30.4 in /  1027.7 hPa Calm     96 % 0 in /  0.0 mm
09:47 55.4 °F /  13.0 °C 54.3 °F /  12.4 °C 30.4 in /  1027.7 hPa Calm     96 % 0 in /  0.0 mm
09:52 56.1 °F /  13.4 °C 55 °F /  12.8 °C 30.4 in /  1027.7 hPa Calm     96 % 0 in /  0.0 mm
10:02 56.8 °F /  13.8 °C 55.4 °F /  13.0 °C 30.4 in /  1027.7 hPa Calm     95 % 0 in /  0.0 mm
10:07 57.2 °F /  14.0 °C 55.2 °F /  12.9 °C 30.4 in /  1027.7 hPa Calm     93 % 0 in /  0.0 mm
10:12 57.6 °F /  14.2 °C 55.2 °F /  12.9 °C 30.4 in /  1027.7 hPa Calm     92 % 0 in /  0.0 mm
10:17 57.7 °F /  14.3 °C 55.2 °F /  12.9 °C 30.4 in /  1027.7 hPa Calm   2 mph /  3.2 km/h 91 % 0 in /  0.0 mm
10:22 58.6 °F /  14.8 °C 55.4 °F /  13.0 °C 30.4 in /  1027.7 hPa Calm   2 mph /  3.2 km/h 89 % 0 in /  0.0 mm
10:27 58.8 °F /  14.9 °C 55 °F /  12.8 °C 30.4 in /  1027.7 hPa Calm   2 mph /  3.2 km/h 87 % 0 in /  0.0 mm
10:32 59 °F /  15.0 °C 54.9 °F /  12.7 °C 30.4 in /  1027.7 hPa Calm   2 mph /  3.2 km/h 86 % 0 in /  0.0 mm
10:37 59.4 °F /  15.2 °C 54.5 °F /  12.5 °C 30.4 in /  1027.7 hPa Calm   4 mph /  6.4 km/h 84 % 0 in /  0.0 mm
10:42 59.7 °F /  15.4 °C 54.9 °F /  12.7 °C 30.4 in /  1027.7 hPa South 1 mph /  1.6 km/h 4 mph /  6.4 km/h 84 % 0 in /  0.0 mm
10:52 60.4 °F /  15.8 °C 54.5 °F /  12.5 °C 30.4 in /  1028.0 hPa South 1 mph /  1.6 km/h 4 mph /  6.4 km/h 81 % 0 in /  0.0 mm
10:57 60.4 °F /  15.8 °C 54.3 °F /  12.4 °C 30.4 in /  1028.0 hPa SW 1 mph /  1.6 km/h 4 mph /  6.4 km/h 80 % 0 in /  0.0 mm
11:02 60.6 °F /  15.9 °C 54.7 °F /  12.6 °C 30.4 in /  1027.7 hPa SE 1 mph /  1.6 km/h 4 mph /  6.4 km/h 81 % 0 in /  0.0 mm
11:12 61.2 °F /  16.2 °C 54.7 °F /  12.6 °C 30.4 in /  1027.7 hPa Calm   4 mph /  6.4 km/h 79 % 0 in /  0.0 mm
11:17 61 °F /  16.1 °C 54.5 °F /  12.5 °C 30.4 in /  1028.0 hPa Calm   2 mph /  3.2 km/h 79 % 0 in /  0.0 mm
11:22 61.2 °F /  16.2 °C 54.9 °F /  12.7 °C 30.4 in /  1027.7 hPa SSE 2 mph /  3.2 km/h 2 mph /  3.2 km/h 80 % 0 in /  0.0 mm
11:32 61.9 °F /  16.6 °C 55.2 °F /  12.9 °C 30.4 in /  1027.7 hPa Calm   5 mph /  8.0 km/h 79 % 0 in /  0.0 mm
11:37 62.2 °F /  16.8 °C 54.9 °F /  12.7 °C 30.4 in /  1027.7 hPa SW 3 mph /  4.8 km/h 5 mph /  8.0 km/h 77 % 0 in /  0.0 mm
11:47 62.4 °F /  16.9 °C 55 °F /  12.8 °C 30.4 in /  1027.7 hPa SW 1 mph /  1.6 km/h 4 mph /  6.4 km/h 77 % 0 in /  0.0 mm
11:57 63 °F /  17.2 °C 55.6 °F /  13.1 °C 30.4 in /  1027.7 hPa South 1 mph /  1.6 km/h 4 mph /  6.4 km/h 77 % 0 in /  0.0 mm
12:02 63.7 °F /  17.6 °C 56.3 °F /  13.5 °C 30.4 in /  1027.7 hPa Calm   4 mph /  6.4 km/h 77 % 0 in /  0.0 mm
12:12 63.3 °F /  17.4 °C 55.2 °F /  12.9 °C 30.4 in /  1027.7 hPa NE 2 mph /  3.2 km/h 3 mph /  4.8 km/h 75 % 0 in /  0.0 mm
12:17 63.7 °F /  17.6 °C 56.3 °F /  13.5 °C 30.4 in /  1027.7 hPa Calm   4 mph /  6.4 km/h 77 % 0 in /  0.0 mm
12:22 64 °F /  17.8 °C 56.3 °F /  13.5 °C 30.4 in /  1027.7 hPa Calm   4 mph /  6.4 km/h 76 % 0 in /  0.0 mm
12:32 65.3 °F /  18.5 °C 56.8 °F /  13.8 °C 30.3 in /  1027.3 hPa Calm   3 mph /  4.8 km/h 74 % 0 in /  0.0 mm
12:37 65.8 °F /  18.8 °C 57.4 °F /  14.1 °C 30.4 in /  1027.7 hPa SE 3 mph /  4.8 km/h 3 mph /  4.8 km/h 74 % 0 in /  0.0 mm
12:42 66.4 °F /  19.1 °C 56.7 °F /  13.7 °C 30.4 in /  1027.7 hPa Calm   2 mph /  3.2 km/h 71 % 0 in /  0.0 mm
12:47 66.6 °F /  19.2 °C 56.8 °F /  13.8 °C 30.4 in /  1027.7 hPa NE 1 mph /  1.6 km/h 2 mph /  3.2 km/h 71 % 0 in /  0.0 mm
12:52 66.4 °F /  19.1 °C 57 °F /  13.9 °C 30.3 in /  1027.3 hPa Calm   3 mph /  4.8 km/h 72 % 0 in /  0.0 mm
12:57 66.2 °F /  19.0 °C 56.8 °F /  13.8 °C 30.4 in /  1027.7 hPa ENE 1 mph /  1.6 km/h 3 mph /  4.8 km/h 72 % 0 in /  0.0 mm
13:02 66.4 °F /  19.1 °C 57.4 °F /  14.1 °C 30.3 in /  1027.3 hPa Calm   4 mph /  6.4 km/h 73 % 0 in /  0.0 mm
13:12 67.8 °F /  19.9 °C 57.7 °F /  14.3 °C 30.3 in /  1027.3 hPa ESE 1 mph /  1.6 km/h 4 mph /  6.4 km/h 70 % 0 in /  0.0 mm
13:17 67.6 °F /  19.8 °C 57 °F /  13.9 °C 30.3 in /  1027.3 hPa Calm   4 mph /  6.4 km/h 69 % 0 in /  0.0 mm
13:22 68 °F /  20.0 °C 57.9 °F /  14.4 °C 30.3 in /  1027.3 hPa East 2 mph /  3.2 km/h 4 mph /  6.4 km/h 70 % 0 in /  0.0 mm
13:32 68.7 °F /  20.4 °C 58.1 °F /  14.5 °C 30.3 in /  1027.0 hPa South 1 mph /  1.6 km/h 5 mph /  8.0 km/h 69 % 0 in /  0.0 mm
13:42 69.4 °F /  20.8 °C 57.6 °F /  14.2 °C 30.3 in /  1027.0 hPa Calm   4 mph /  6.4 km/h 66 % 0 in /  0.0 mm
13:52 69.4 °F /  20.8 °C 57.6 °F /  14.2 °C 30.3 in /  1027.0 hPa ENE 3 mph /  4.8 km/h 5 mph /  8.0 km/h 66 % 0 in /  0.0 mm
13:57 69.6 °F /  20.9 °C 57.7 °F /  14.3 °C 30.3 in /  1026.6 hPa South 1 mph /  1.6 km/h 5 mph /  8.0 km/h 66 % 0 in /  0.0 mm
14:02 70.2 °F /  21.2 °C 57.9 °F /  14.4 °C 30.3 in /  1026.6 hPa SE 2 mph /  3.2 km/h 5 mph /  8.0 km/h 65 % 0 in /  0.0 mm
14:12 70.9 °F /  21.6 °C 57.7 °F /  14.3 °C 30.3 in /  1026.6 hPa East 4 mph /  6.4 km/h 5 mph /  8.0 km/h 63 % 0 in /  0.0 mm
14:17 70.9 °F /  21.6 °C 58.1 °F /  14.5 °C 30.3 in /  1026.6 hPa East 2 mph /  3.2 km/h 5 mph /  8.0 km/h 64 % 0 in /  0.0 mm
14:22 70.9 °F /  21.6 °C 58.5 °F /  14.7 °C 30.3 in /  1026.6 hPa ENE 3 mph /  4.8 km/h 5 mph /  8.0 km/h 65 % 0 in /  0.0 mm
Meteo18
Compliments of Weather Underground - 4 mb

Script developed by  Jim McMurry - jmcmurry@mwt.net Adapted for the template by  Wim van der Kuil - Leuven-Template.eu

You find our weather info also at:

European Weather Network

Weather Underground

Equipment we use:

Weather-station
Davis Vue

Weather-program
Meteohub

Weather-server
Raspberry PI 2 B+

Provider
1 and 1

Davis Vue

Meteohub

Raspberry PI 2 B+

1 and 1